Time;durP1;ratioP1;P1;durP2;ratioP2;P2;SDS_P1;SDS_P2;PMS_P1;PMS_P2;Temp;Humidity;BMP_temperature;BMP_pressure;BME280_temperature;BME280_humidity;BME280_pressure;Samples;Min_cycle;Max_cycle;Signal;HPM_P1;HPM_P2
2022/08/28 00:02:03;;;;;;;11.63;3.28;;;13.80;99.40;;;;;;5064916;28;20458;-46
2022/08/28 00:04:29;;;;;;;14.95;4.47;;;12.10;99.90;;;;;;5059439;28;20052;-47
2022/08/28 00:06:56;;;;;;;10.32;2.97;;;12.00;99.90;;;;;;5063130;28;20044;-51
2022/08/28 00:09:22;;;;;;;10.45;3.20;;;11.00;99.90;;;;;;5045309;28;20090;-47
2022/08/28 00:11:48;;;;;;;11.27;3.33;;;12.10;99.90;;;;;;5044230;28;20126;-49
2022/08/28 00:14:14;;;;;;;13.80;3.17;;;11.90;99.90;;;;;;5060074;28;20396;-46
2022/08/28 00:16:40;;;;;;;12.02;3.10;;;12.10;99.90;;;;;;5061869;28;20059;-50
2022/08/28 00:19:06;;;;;;;9.68;3.05;;;12.10;99.90;;;;;;5063773;28;20047;-47
2022/08/28 00:21:32;;;;;;;9.07;3.10;;;11.90;99.90;;;;;;5068730;28;20317;-47
2022/08/28 00:23:59;;;;;;;9.87;3.17;;;11.90;99.90;;;;;;5046591;28;20067;-50
2022/08/28 00:29:09;;;;;;;8.48;3.10;;;11.70;99.90;;;;;;5063541;28;20532;-51
2022/08/28 00:31:38;;;;;;;12.40;3.53;;;11.60;99.90;;;;;;5059612;28;20445;-47
2022/08/28 00:34:08;;;;;;;9.18;4.07;;;11.70;99.90;;;;;;5059155;28;20037;-49
2022/08/28 00:36:35;;;;;;;11.27;3.47;;;11.60;99.90;;;;;;5060539;28;20117;-47
2022/08/28 00:39:00;;;;;;;10.23;3.20;;;12.70;99.90;;;;;;5066651;28;20373;-48
2022/08/28 00:41:29;;;;;;;8.32;2.95;;;13.00;99.90;;;;;;5063793;28;20051;-49
2022/08/28 00:44:25;;;;;;;8.30;3.00;;;11.50;99.90;;;;;;5059950;28;20040;-47
2022/08/28 00:46:52;;;;;;;10.32;3.10;;;11.40;99.90;;;;;;5041399;28;20097;-48
2022/08/28 00:49:22;;;;;;;11.20;3.25;;;11.50;99.90;;;;;;5067916;28;20047;-50
2022/08/28 00:52:06;;;;;;;14.38;3.10;;;11.60;99.90;;;;;;5062946;28;20047;-49
2022/08/28 00:54:37;;;;;;;7.60;3.00;;;11.20;99.90;;;;;;5061837;28;20482;-48
2022/08/28 00:57:06;;;;;;;9.07;2.85;;;11.10;99.90;;;;;;5064747;28;20040;-51
2022/08/28 00:59:32;;;;;;;8.93;2.47;;;11.30;99.90;;;;;;5066072;28;20044;-47
2022/08/28 01:01:58;;;;;;;12.10;2.78;;;11.20;99.90;;;;;;5046118;28;20051;-48
2022/08/28 01:04:27;;;;;;;12.48;3.20;;;11.30;99.90;;;;;;5059889;28;20080;-46
2022/08/28 01:06:55;;;;;;;9.02;2.80;;;11.10;99.90;;;;;;5062566;28;20071;-47
2022/08/28 01:09:23;;;;;;;7.70;3.08;;;11.60;99.90;;;;;;5060035;28;20072;-48
2022/08/28 01:11:51;;;;;;;9.45;3.58;;;11.20;99.90;;;;;;5062827;28;21011;-47
2022/08/28 01:14:21;;;;;;;9.77;2.72;;;11.30;99.90;;;;;;5065263;28;20416;-48
2022/08/28 01:16:51;;;;;;;12.43;2.70;;;11.30;99.90;;;;;;5064808;28;20511;-49
2022/08/28 01:19:31;;;;;;;13.32;3.28;;;11.30;99.90;;;;;;5066817;28;20193;-50
2022/08/28 01:22:37;;;;;;;12.07;3.28;;;11.40;99.90;;;;;;5043881;28;20155;-49
2022/08/28 01:25:07;;;;;;;8.93;2.78;;;11.40;99.90;;;;;;5039591;28;20527;-46
2022/08/28 01:27:33;;;;;;;10.63;3.22;;;11.20;99.90;;;;;;5060867;28;20441;-47
2022/08/28 01:29:58;;;;;;;11.02;3.10;;;11.10;99.90;;;;;;5061627;28;20576;-50
2022/08/28 01:32:31;;;;;;;7.90;2.58;;;11.30;99.90;;;;;;5063085;28;20032;-48
2022/08/28 01:34:58;;;;;;;11.07;3.20;;;11.30;99.90;;;;;;5059098;28;20040;-49
2022/08/28 01:37:24;;;;;;;11.50;3.40;;;11.30;99.90;;;;;;5047629;28;20089;-47
2022/08/28 01:39:50;;;;;;;13.57;3.35;;;12.10;99.90;;;;;;5058889;28;20048;-47
2022/08/28 01:42:16;;;;;;;12.85;3.03;;;11.40;99.90;;;;;;5066273;28;20124;-47
2022/08/28 01:44:41;;;;;;;9.00;2.60;;;11.30;99.90;;;;;;5066220;28;20056;-51
2022/08/28 01:47:07;;;;;;;8.82;3.20;;;11.30;99.90;;;;;;5067784;28;20052;-50
2022/08/28 01:49:33;;;;;;;8.63;2.45;;;12.20;99.90;;;;;;5068706;28;20045;-48
2022/08/28 01:51:59;;;;;;;8.55;2.67;;;11.30;99.90;;;;;;5063520;28;20533;-50
2022/08/28 01:54:27;;;;;;;7.97;2.80;;;11.50;99.90;;;;;;5065011;28;20032;-50
2022/08/28 01:56:53;;;;;;;14.25;3.13;;;11.20;99.90;;;;;;5043200;28;20036;-50
2022/08/28 01:59:20;;;;;;;10.57;2.92;;;13.10;99.90;;;;;;5047658;28;20054;-48
2022/08/28 02:01:46;;;;;;;10.82;3.45;;;11.10;99.90;;;;;;5066082;28;20496;-47
2022/08/28 02:04:12;;;;;;;11.85;2.92;;;11.20;99.90;;;;;;5070266;28;20039;-47
2022/08/28 02:06:37;;;;;;;9.15;2.92;;;11.20;99.90;;;;;;5051367;28;20048;-48
2022/08/28 02:09:05;;;;;;;10.35;2.88;;;11.10;99.90;;;;;;5068797;28;20132;-46
2022/08/28 02:11:32;;;;;;;10.00;2.60;;;11.20;99.90;;;;;;5064877;28;20044;-49
2022/08/28 02:13:59;;;;;;;6.25;2.28;;;11.10;99.90;;;;;;5068940;28;20454;-48
2022/08/28 02:16:25;;;;;;;7.80;2.72;;;11.70;99.90;;;;;;5068574;28;20122;-47
2022/08/28 02:18:52;;;;;;;6.75;2.35;;;11.10;99.90;;;;;;5062696;28;20096;-48
2022/08/28 02:21:18;;;;;;;11.27;2.72;;;13.20;99.90;;;;;;5064956;28;20398;-48
2022/08/28 02:23:45;;;;;;;10.82;2.70;;;11.00;99.90;;;;;;5064957;28;20036;-49
2022/08/28 02:26:12;;;;;;;7.28;2.50;;;11.00;99.90;;;;;;5064995;28;20088;-49
2022/08/28 02:28:39;;;;;;;8.15;2.80;;;11.10;99.90;;;;;;5063153;28;21605;-48
2022/08/28 02:31:08;;;;;;;11.57;2.40;;;11.10;99.90;;;;;;5065891;28;20348;-48
2022/08/28 02:33:38;;;;;;;8.50;3.00;;;11.10;99.90;;;;;;5063726;28;20048;-50
2022/08/28 02:36:08;;;;;;;10.70;2.78;;;11.50;99.90;;;;;;5066521;28;20090;-48
2022/08/28 02:38:35;;;;;;;10.68;2.50;;;11.80;99.90;;;;;;5063745;28;20599;-49
2022/08/28 02:41:00;;;;;;;6.80;2.80;;;12.80;99.90;;;;;;5065646;28;20032;-48
2022/08/28 02:43:26;;;;;;;8.68;2.80;;;11.10;99.90;;;;;;5066191;28;20522;-48
2022/08/28 02:45:52;;;;;;;11.13;2.65;;;11.10;99.90;;;;;;5064833;28;20116;-48
2022/08/28 02:48:18;;;;;;;10.75;3.45;;;11.10;99.90;;;;;;5068165;28;20045;-49
2022/08/28 02:50:45;;;;;;;8.77;2.70;;;10.90;99.90;;;;;;5065570;28;20036;-48
2022/08/28 02:53:11;;;;;;;9.23;2.65;;;10.90;99.90;;;;;;5064928;28;20532;-48
2022/08/28 02:55:36;;;;;;;7.75;2.63;;;11.00;99.90;;;;;;5047114;28;20036;-47
2022/08/28 02:58:02;;;;;;;9.45;2.63;;;10.90;99.90;;;;;;5066379;28;20036;-49
2022/08/28 03:00:28;;;;;;;8.13;2.55;;;12.60;99.90;;;;;;5065713;28;20287;-47
2022/08/28 03:02:54;;;;;;;9.52;2.30;;;10.60;99.90;;;;;;5066537;28;20051;-48
2022/08/28 03:05:22;;;;;;;6.43;1.90;;;10.70;99.90;;;;;;5066003;28;20044;-47
2022/08/28 03:07:52;;;;;;;7.97;2.33;;;11.80;99.90;;;;;;5065752;28;20040;-49
2022/08/28 03:10:18;;;;;;;9.45;2.25;;;12.20;99.90;;;;;;5067118;28;20051;-46
2022/08/28 03:12:44;;;;;;;9.45;2.30;;;10.40;99.90;;;;;;5063501;28;20490;-48
2022/08/28 03:15:10;;;;;;;5.78;1.95;;;11.20;99.90;;;;;;5064564;28;20051;-48
2022/08/28 03:17:36;;;;;;;5.60;2.05;;;10.30;99.90;;;;;;5064956;28;20036;-46
2022/08/28 03:20:07;;;;;;;5.70;2.75;;;11.00;99.90;;;;;;5061256;28;20049;-48
2022/08/28 03:25:18;;;;;;;7.07;2.38;;;11.10;99.90;;;;;;5064794;28;20139;-47
2022/08/28 03:27:43;;;;;;;7.60;2.20;;;11.70;99.90;;;;;;5064067;28;20047;-46
2022/08/28 03:30:10;;;;;;;7.07;1.77;;;10.40;99.90;;;;;;5063472;28;20040;-49
2022/08/28 03:32:36;;;;;;;5.80;1.80;;;10.00;99.90;;;;;;5067790;28;20463;-49
2022/08/28 03:35:04;;;;;;;7.70;2.03;;;10.70;99.90;;;;;;5065359;28;20119;-46
2022/08/28 03:37:30;;;;;;;7.60;2.25;;;10.10;99.90;;;;;;5045979;28;20148;-48
2022/08/28 03:39:56;;;;;;;7.90;2.10;;;11.10;99.90;;;;;;5062229;28;20136;-46
2022/08/28 03:42:22;;;;;;;6.75;1.65;;;10.00;99.90;;;;;;5062390;28;20578;-46
2022/08/28 03:44:47;;;;;;;7.72;3.25;;;11.40;99.90;;;;;;5045654;28;21354;-50
2022/08/28 03:47:14;;;;;;;8.15;2.50;;;10.20;99.90;;;;;;5066589;28;20079;-48
2022/08/28 03:49:40;;;;;;;8.65;2.67;;;10.80;99.90;;;;;;5065943;28;20203;-49
2022/08/28 03:52:06;;;;;;;7.07;2.35;;;10.20;99.90;;;;;;5061601;28;20048;-51
2022/08/28 03:54:32;;;;;;;8.20;2.53;;;10.20;99.90;;;;;;5061753;28;22351;-49
2022/08/28 03:56:58;;;;;;;6.18;2.30;;;10.30;99.90;;;;;;5067725;28;20514;-48
2022/08/28 03:59:23;;;;;;;9.68;3.35;;;11.30;99.90;;;;;;5060223;28;20123;-47
2022/08/28 04:01:49;;;;;;;7.13;2.35;;;10.30;99.90;;;;;;5066463;28;20043;-47
2022/08/28 04:04:14;;;;;;;7.80;2.30;;;11.00;99.90;;;;;;5065583;28;20075;-47
2022/08/28 04:06:40;;;;;;;7.78;3.20;;;12.10;99.90;;;;;;5065694;28;20512;-48
2022/08/28 04:09:06;;;;;;;6.25;2.33;;;10.30;99.90;;;;;;5061503;28;20398;-48
2022/08/28 04:11:37;;;;;;;7.80;2.40;;;12.10;99.90;;;;;;5063587;28;20101;-49
2022/08/28 04:14:02;;;;;;;7.47;2.75;;;10.20;99.90;;;;;;5063370;28;20047;-48
2022/08/28 04:16:28;;;;;;;5.57;2.85;;;10.30;99.90;;;;;;5062035;28;20048;-48
2022/08/28 04:18:54;;;;;;;6.28;2.50;;;11.40;99.90;;;;;;5061683;28;20037;-46
2022/08/28 04:21:23;;;;;;;6.88;2.13;;;10.40;99.90;;;;;;5047318;28;20253;-46
2022/08/28 04:23:49;;;;;;;8.45;2.50;;;12.00;99.90;;;;;;5036924;28;20648;-47
2022/08/28 04:26:17;;;;;;;6.70;2.15;;;10.10;99.90;;;;;;5068207;28;20045;-47
2022/08/28 04:28:44;;;;;;;9.68;2.22;;;10.30;99.90;;;;;;5065847;28;20094;-51
2022/08/28 04:31:10;;;;;;;6.63;2.20;;;10.10;99.90;;;;;;5062918;28;20047;-47
2022/08/28 04:33:36;;;;;;;7.75;2.33;;;10.30;99.90;;;;;;5062603;28;21116;-51
2022/08/28 04:36:06;;;;;;;5.75;2.28;;;10.80;99.90;;;;;;5065810;28;20040;-48
2022/08/28 04:38:32;;;;;;;8.32;1.95;;;10.30;99.90;;;;;;5066379;28;20521;-50
2022/08/28 04:40:58;;;;;;;7.53;2.25;;;8.40;99.90;;;;;;5064661;28;20044;-50
2022/08/28 04:43:24;;;;;;;7.75;2.38;;;11.30;99.90;;;;;;5046033;28;20036;-47
2022/08/28 04:45:50;;;;;;;9.65;1.92;;;10.30;99.90;;;;;;5064267;28;20164;-50
2022/08/28 04:48:16;;;;;;;9.68;2.05;;;11.10;99.90;;;;;;5061949;28;20384;-47
2022/08/28 04:50:43;;;;;;;3.95;1.60;;;10.20;99.90;;;;;;5066551;28;20062;-48
2022/08/28 04:53:10;;;;;;;6.72;2.38;;;10.30;99.90;;;;;;5065274;28;20101;-49
2022/08/28 04:55:43;;;;;;;8.52;1.80;;;11.30;99.90;;;;;;5063442;28;20028;-50
2022/08/28 04:58:09;;;;;;;11.90;2.50;;;10.80;99.90;;;;;;5066461;28;20044;-49
2022/08/28 05:00:37;;;;;;;7.18;2.47;;;10.20;99.90;;;;;;5067622;28;20050;-48
2022/08/28 05:03:03;;;;;;;6.28;2.15;;;12.40;99.90;;;;;;5063586;28;20040;-51
2022/08/28 05:05:28;;;;;;;9.68;2.50;;;10.40;99.90;;;;;;5062114;28;20032;-49
2022/08/28 05:07:54;;;;;;;11.77;2.53;;;12.30;99.90;;;;;;5061866;28;20757;-50
2022/08/28 05:10:20;;;;;;;8.02;2.25;;;10.60;99.90;;;;;;5068288;28;20052;-47
2022/08/28 05:12:46;;;;;;;5.13;1.90;;;10.40;99.90;;;;;;5062931;28;20071;-48
2022/08/28 05:15:12;;;;;;;7.22;2.60;;;11.20;99.90;;;;;;5063949;28;20051;-48
2022/08/28 05:17:39;;;;;;;7.45;2.45;;;10.40;99.90;;;;;;5061739;28;20047;-50
2022/08/28 05:20:05;;;;;;;20.00;3.00;;;12.30;99.90;;;;;;5070073;28;20412;-47
2022/08/28 05:22:31;;;;;;;15.95;2.85;;;10.50;99.90;;;;;;5067300;28;20075;-50
2022/08/28 05:24:59;;;;;;;14.63;2.55;;;10.60;99.90;;;;;;5062686;28;20140;-50
2022/08/28 05:27:26;;;;;;;9.38;2.75;;;12.70;99.90;;;;;;5069853;28;20032;-50
2022/08/28 05:29:52;;;;;;;9.52;2.20;;;10.60;99.90;;;;;;5047891;28;20047;-48
2022/08/28 05:32:19;;;;;;;6.13;1.98;;;11.00;99.90;;;;;;5070416;28;20044;-48
2022/08/28 05:34:45;;;;;;;8.45;2.30;;;11.10;99.90;;;;;;5050453;28;20036;-50
2022/08/28 05:37:11;;;;;;;8.57;2.42;;;13.00;99.90;;;;;;5051800;28;20040;-50
2022/08/28 05:39:37;;;;;;;7.38;1.90;;;11.30;99.90;;;;;;5062846;28;20119;-49
2022/08/28 05:42:04;;;;;;;12.43;2.17;;;11.40;99.90;;;;;;5062317;28;20109;-50
2022/08/28 05:44:30;;;;;;;9.52;2.10;;;11.60;99.90;;;;;;5066877;28;20094;-49
2022/08/28 05:46:56;;;;;;;9.60;2.47;;;11.80;99.90;;;;;;5064796;28;20409;-51
2022/08/28 05:49:22;;;;;;;9.02;2.53;;;12.20;99.90;;;;;;5065395;28;20047;-50
2022/08/28 05:51:48;;;;;;;11.43;2.20;;;12.00;99.90;;;;;;5066256;28;20037;-51
2022/08/28 05:54:15;;;;;;;9.38;2.22;;;12.30;99.90;;;;;;5048681;28;20044;-51
2022/08/28 05:56:42;;;;;;;8.82;1.75;;;12.50;99.90;;;;;;5045660;28;20040;-52
2022/08/28 05:59:09;;;;;;;7.43;1.90;;;12.70;99.90;;;;;;5066068;28;20033;-52
2022/08/28 06:01:39;;;;;;;7.95;1.75;;;12.70;99.90;;;;;;5068708;28;20329;-50
2022/08/28 06:04:12;;;;;;;11.60;1.90;;;12.50;99.90;;;;;;5060489;28;21178;-51
2022/08/28 06:06:40;;;;;;;7.78;2.25;;;12.90;99.90;;;;;;5064305;28;20045;-48
2022/08/28 06:09:15;;;;;;;7.72;1.80;;;13.50;99.90;;;;;;5068173;28;20323;-51
2022/08/28 06:11:41;;;;;;;8.93;2.13;;;13.80;99.90;;;;;;5066228;28;20036;-49
2022/08/28 06:14:09;;;;;;;8.15;1.60;;;14.70;99.90;;;;;;5067425;28;20039;-50
2022/08/28 06:16:40;;;;;;;9.23;2.13;;;15.20;99.90;;;;;;5065978;28;20123;-50
2022/08/28 06:19:08;;;;;;;11.35;1.92;;;16.40;99.90;;;;;;5064595;28;20040;-52
2022/08/28 06:21:34;;;;;;;9.18;1.65;;;17.70;99.90;;;;;;5062533;28;20048;-53
2022/08/28 06:24:00;;;;;;;8.85;1.90;;;19.10;99.90;;;;;;5065897;28;20527;-52
2022/08/28 06:26:26;;;;;;;10.05;2.10;;;20.30;99.90;;;;;;5063931;28;20040;-53
2022/08/28 06:28:52;;;;;;;10.77;2.38;;;21.20;99.90;;;;;;5052941;28;20032;-53
2022/08/28 06:31:18;;;;;;;9.18;2.13;;;21.90;99.90;;;;;;5046895;28;20056;-53
2022/08/28 06:33:45;;;;;;;16.08;2.40;;;22.40;99.90;;;;;;5065780;28;20028;-50
2022/08/28 06:36:11;;;;;;;9.38;1.77;;;22.50;99.90;;;;;;5064516;28;20048;-53
2022/08/28 06:38:37;;;;;;;8.68;1.98;;;22.70;99.90;;;;;;5066793;28;20055;-54
2022/08/28 06:41:10;;;;;;;11.45;1.85;;;23.20;99.90;;;;;;5065754;28;20040;-51
2022/08/28 06:43:36;;;;;;;7.35;1.60;;;23.50;99.90;;;;;;5062924;28;20041;-53
2022/08/28 06:46:02;;;;;;;7.95;1.55;;;23.90;99.90;;;;;;5061720;28;20109;-54
2022/08/28 06:48:29;;;;;;;9.00;1.83;;;24.20;99.90;;;;;;5049614;28;20056;-52
2022/08/28 06:50:56;;;;;;;9.20;1.90;;;24.50;99.90;;;;;;5065660;28;20045;-53
2022/08/28 06:53:26;;;;;;;7.10;1.88;;;24.80;99.90;;;;;;5060190;28;20119;-55
2022/08/28 06:55:57;;;;;;;9.98;1.90;;;25.30;99.90;;;;;;5064929;28;20051;-54
2022/08/28 06:58:23;;;;;;;8.95;1.67;;;25.90;99.90;;;;;;5035676;28;20483;-51
2022/08/28 07:00:49;;;;;;;8.63;2.00;;;26.20;99.90;;;;;;5060594;28;20178;-52
2022/08/28 07:03:15;;;;;;;6.80;1.83;;;26.40;99.90;;;;;;5064923;28;20060;-50
2022/08/28 07:05:41;;;;;;;5.72;1.65;;;26.50;99.90;;;;;;5063718;28;20043;-51
2022/08/28 07:08:07;;;;;;;6.93;1.70;;;26.80;99.90;;;;;;5067708;28;20373;-49
2022/08/28 07:10:33;;;;;;;9.10;1.90;;;27.00;99.90;;;;;;5065249;28;20507;-50
2022/08/28 07:12:59;;;;;;;5.63;1.77;;;27.20;99.90;;;;;;5044669;28;20048;-49
2022/08/28 07:15:25;;;;;;;11.45;2.47;;;26.80;97.90;;;;;;5066233;28;20527;-48
2022/08/28 07:17:51;;;;;;;4.32;1.40;;;27.20;97.80;;;;;;5045134;28;20090;-48
2022/08/28 07:20:17;;;;;;;7.13;1.83;;;27.20;98.40;;;;;;5066015;28;20512;-49
2022/08/28 07:22:43;;;;;;;6.85;1.77;;;27.00;97.00;;;;;;5067295;28;20052;-48
2022/08/28 07:25:10;;;;;;;7.25;1.80;;;27.30;96.50;;;;;;5066309;28;20040;-49
2022/08/28 07:27:37;;;;;;;8.57;1.63;;;26.40;96.30;;;;;;5062791;28;20113;-48
2022/08/28 07:30:05;;;;;;;5.10;1.40;;;26.50;96.80;;;;;;5059466;28;20135;-49
2022/08/28 07:32:32;;;;;;;5.65;1.50;;;25.60;96.50;;;;;;5060667;28;20561;-48
2022/08/28 07:34:58;;;;;;;8.13;1.48;;;24.90;97.20;;;;;;5045620;28;20519;-49
2022/08/28 07:37:24;;;;;;;6.30;1.60;;;24.20;98.70;;;;;;5045786;28;20052;-49
2022/08/28 07:39:50;;;;;;;8.00;1.70;;;23.20;99.10;;;;;;5065782;28;20043;-48
2022/08/28 07:44:48;;;;;;;3.97;1.30;;;25.00;99.90;;;;;;5062771;28;20456;-48
2022/08/28 07:45:02;;;;;;;5.47;1.58;;;22.70;99.90;;;;;;5062948;28;20066;-47
2022/08/28 07:47:30;;;;;;;6.85;1.73;;;22.20;99.90;;;;;;5062947;28;20557;-53
2022/08/28 07:49:59;;;;;;;5.90;1.48;;;22.00;99.90;;;;;;5062662;28;20032;-49
2022/08/28 07:52:26;;;;;;;10.82;1.65;;;21.70;99.90;;;;;;5057930;28;20193;-52
2022/08/28 07:54:53;;;;;;;6.15;1.48;;;21.30;99.90;;;;;;5066535;28;20432;-49
2022/08/28 07:57:20;;;;;;;8.90;1.95;;;21.20;99.90;;;;;;5067625;28;20051;-51
2022/08/28 07:59:46;;;;;;;8.35;2.20;;;21.00;99.90;;;;;;5055455;28;20109;-51
2022/08/28 08:02:12;;;;;;;5.50;1.58;;;21.40;99.90;;;;;;5066168;28;20412;-49
2022/08/28 08:04:39;;;;;;;10.07;1.90;;;21.40;99.90;;;;;;5057354;28;20043;-52
2022/08/28 08:07:05;;;;;;;10.43;1.88;;;21.10;99.90;;;;;;5063900;28;20044;-49
2022/08/28 08:09:35;;;;;;;10.32;2.22;;;20.90;99.90;;;;;;5057659;28;20475;-49
2022/08/28 08:12:01;;;;;;;5.15;1.40;;;20.40;99.90;;;;;;5057021;28;20052;-48
2022/08/28 08:14:27;;;;;;;4.63;1.40;;;20.20;99.90;;;;;;5065261;28;20043;-48
2022/08/28 08:16:53;;;;;;;4.80;1.67;;;19.90;99.90;;;;;;5066636;28;20822;-51
2022/08/28 08:19:19;;;;;;;7.68;1.67;;;19.90;99.90;;;;;;5064442;28;20127;-49
2022/08/28 08:21:51;;;;;;;6.40;1.50;;;19.90;99.90;;;;;;5065268;28;20048;-52
2022/08/28 08:24:19;;;;;;;8.18;1.65;;;20.00;99.90;;;;;;5064342;28;20040;-48
2022/08/28 08:26:50;;;;;;;6.53;1.38;;;19.70;99.90;;;;;;5063949;28;20629;-48
2022/08/28 08:29:16;;;;;;;9.32;1.77;;;19.70;99.90;;;;;;5063990;28;20048;-49
2022/08/28 08:31:42;;;;;;;8.55;1.58;;;19.40;99.90;;;;;;5064392;28;20040;-51
2022/08/28 08:34:08;;;;;;;8.98;1.67;;;19.20;99.90;;;;;;5068122;28;20044;-50
2022/08/28 08:36:36;;;;;;;7.10;1.70;;;19.00;99.90;;;;;;5063175;28;20032;-52
2022/08/28 08:39:03;;;;;;;5.78;1.80;;;18.90;99.90;;;;;;5063481;28;20036;-49
2022/08/28 08:42:01;;;;;;;8.18;1.90;;;18.80;99.90;;;;;;5063601;28;20634;-51
2022/08/28 08:44:31;;;;;;;7.10;2.05;;;19.20;99.90;;;;;;5059219;28;20105;-53
2022/08/28 08:47:18;;;;;;;5.88;1.55;;;19.40;99.90;;;;;;5057686;28;20145;-46
2022/08/28 08:50:05;;;;;;;8.38;1.73;;;19.20;99.90;;;;;;5057912;28;20394;-43
2022/08/28 08:52:39;;;;;;;5.40;1.67;;;19.60;99.90;;;;;;5058805;28;20044;-47
2022/08/28 08:55:24;;;;;;;7.60;1.73;;;19.30;99.90;;;;;;5043948;28;20044;-44
2022/08/28 08:58:05;;;;;;;8.15;1.80;;;19.10;99.90;;;;;;5062428;28;20072;-46
2022/08/28 09:00:37;;;;;;;8.45;1.85;;;19.10;99.90;;;;;;5062868;28;20050;-44
2022/08/28 09:03:21;;;;;;;9.60;2.05;;;21.70;99.90;;;;;;5058638;28;20078;-46
2022/08/28 09:06:00;;;;;;;9.05;1.60;;;19.30;99.90;;;;;;5058015;28;20991;-48
2022/08/28 09:08:39;;;;;;;9.85;1.75;;;19.30;99.90;;;;;;5060207;28;20101;-44
2022/08/28 09:11:15;;;;;;;8.00;1.58;;;20.60;99.90;;;;;;5062492;28;20043;-43
2022/08/28 09:14:09;;;;;;;7.18;1.92;;;19.40;99.90;;;;;;5065303;28;20396;-47
2022/08/28 09:16:38;;;;;;;6.65;2.13;;;19.40;99.90;;;;;;5015151;28;21150;-48
2022/08/28 09:19:06;;;;;;;7.10;1.92;;;19.20;99.90;;;;;;5065334;28;20037;-47
2022/08/28 09:21:36;;;;;;;10.90;1.63;;;19.20;99.90;;;;;;5062992;28;20410;-44
2022/08/28 09:24:15;;;;;;;5.32;1.58;;;19.30;99.90;;;;;;5060398;28;20280;-46
2022/08/28 09:26:41;;;;;;;7.72;1.90;;;19.20;99.90;;;;;;5059664;28;20051;-46
2022/08/28 09:29:15;;;;;;;7.40;1.73;;;19.30;99.90;;;;;;5063340;28;20040;-44
2022/08/28 09:31:42;;;;;;;10.48;1.60;;;19.40;99.90;;;;;;5067502;28;20037;-45
2022/08/28 09:34:16;;;;;;;5.78;2.03;;;19.20;99.90;;;;;;5061694;28;20738;-45
2022/08/28 09:36:42;;;;;;;13.32;1.90;;;19.10;99.90;;;;;;5068200;28;20040;-44
2022/08/28 09:39:23;;;;;;;10.95;2.15;;;19.40;99.90;;;;;;5065041;28;20594;-44
2022/08/28 09:45:05;;;;;;;9.57;1.70;;;19.80;99.90;;;;;;5066617;28;20044;-49
2022/08/28 09:47:49;;;;;;;6.07;1.45;;;20.00;99.90;;;;;;5069157;28;20055;-45
2022/08/28 09:50:26;;;;;;;7.43;1.70;;;20.20;99.90;;;;;;5066157;28;21295;-45
2022/08/28 09:52:54;;;;;;;5.47;1.42;;;20.30;99.90;;;;;;5068215;28;20490;-47
2022/08/28 09:55:37;;;;;;;9.52;1.60;;;20.50;99.90;;;;;;5067390;28;20181;-47
2022/08/28 09:58:04;;;;;;;3.97;1.58;;;20.90;99.90;;;;;;5065447;28;20036;-44
2022/08/28 10:00:36;;;;;;;6.60;1.80;;;20.60;99.90;;;;;;5047263;28;20518;-45
2022/08/28 10:03:33;;;;;;;7.18;1.92;;;20.50;99.90;;;;;;5068430;28;20087;-46
2022/08/28 10:06:09;;;;;;;9.68;1.88;;;20.40;99.90;;;;;;5063277;28;20199;-45
2022/08/28 10:08:56;;;;;;;7.43;2.00;;;20.60;99.90;;;;;;5064484;28;20040;-44
2022/08/28 10:12:03;;;;;;;6.65;1.70;;;20.50;99.90;;;;;;5064285;28;20364;-44
2022/08/28 10:14:50;;;;;;;6.93;1.70;;;20.40;99.90;;;;;;5064366;28;20064;-46
2022/08/28 10:17:37;;;;;;;9.50;2.17;;;19.90;99.90;;;;;;5063462;28;20038;-46
2022/08/28 10:20:18;;;;;;;6.07;1.40;;;19.90;99.90;;;;;;5062561;28;20657;-46
2022/08/28 10:22:56;;;;;;;8.18;1.90;;;20.10;99.90;;;;;;5061273;28;20037;-46
2022/08/28 10:25:31;;;;;;;5.10;1.63;;;20.40;99.90;;;;;;5061186;28;20040;-45
2022/08/28 10:28:18;;;;;;;6.40;1.77;;;22.30;99.90;;;;;;5056982;28;20420;-46
2022/08/28 10:31:22;;;;;;;6.20;1.88;;;19.80;99.90;;;;;;5059152;28;20178;-44
2022/08/28 10:33:49;;;;;;;9.32;2.28;;;20.10;99.90;;;;;;5062204;28;20047;-45
2022/08/28 10:36:20;;;;;;;7.55;2.08;;;20.70;99.90;;;;;;5059570;28;20052;-47
2022/08/28 10:38:49;;;;;;;;;;;21.10;99.90;;;;;;5065615;28;20087;-44
2022/08/28 10:41:38;;;;;;;6.13;1.58;;;21.60;99.90;;;;;;5064017;28;19924;-45
2022/08/28 10:44:04;;;;;;;6.43;1.85;;;20.90;99.90;;;;;;5067646;28;20693;-46
2022/08/28 10:46:43;;;;;;;7.78;2.00;;;20.60;99.90;;;;;;5063079;28;20056;-45
2022/08/28 10:49:34;;;;;;;7.68;1.70;;;20.90;99.90;;;;;;5061425;28;20049;-47
2022/08/28 10:52:09;;;;;;;7.97;1.85;;;21.00;99.90;;;;;;5063226;28;20600;-45
2022/08/28 10:55:09;;;;;;;4.85;1.70;;;20.70;99.90;;;;;;5063619;28;20056;-45
2022/08/28 10:57:40;;;;;;;7.47;1.95;;;20.30;99.90;;;;;;5060933;28;20501;-47
2022/08/28 11:00:13;;;;;;;8.95;1.70;;;20.10;99.90;;;;;;5062725;28;20101;-44
2022/08/28 11:02:48;;;;;;;9.73;1.88;;;20.50;99.90;;;;;;5064529;28;20543;-44
2022/08/28 11:05:22;;;;;;;7.15;1.60;;;20.90;99.90;;;;;;5065660;28;20439;-47
2022/08/28 11:07:54;;;;;;;10.90;2.00;;;21.10;99.90;;;;;;5061278;28;20407;-45
2022/08/28 11:10:39;;;;;;;;;;;21.30;99.90;;;;;;5062354;28;20132;-49
2022/08/28 11:13:08;;;;;;;4.25;1.50;;;21.60;99.90;;;;;;5058568;28;19935;-47
2022/08/28 11:15:35;;;;;;;3.60;1.48;;;21.90;99.90;;;;;;5062726;28;20046;-44
2022/08/28 11:18:12;;;;;;;5.25;1.92;;;21.80;99.90;;;;;;5063305;28;20047;-46
2022/08/28 11:20:53;;;;;;;5.60;1.20;;;21.70;99.90;;;;;;5063107;28;20072;-45
2022/08/28 11:23:44;;;;;;;5.25;1.40;;;21.40;99.90;;;;;;5060334;28;20123;-45
2022/08/28 11:26:13;;;;;;;5.53;1.48;;;21.00;99.90;;;;;;5064372;28;20044;-46
2022/08/28 11:28:43;;;;;;;6.57;1.95;;;21.00;99.90;;;;;;5040855;28;20051;-46
2022/08/28 11:31:13;;;;;;;4.70;1.70;;;20.90;99.90;;;;;;5058305;28;20167;-45
2022/08/28 11:33:40;;;;;;;4.68;1.45;;;21.00;99.90;;;;;;5055230;28;20201;-46
2022/08/28 11:36:31;;;;;;;7.50;1.60;;;21.20;99.90;;;;;;5063223;28;20501;-45
2022/08/28 11:39:22;;;;;;;4.53;1.40;;;21.60;99.90;;;;;;5062184;28;20040;-45
2022/08/28 11:42:12;;;;;;;6.05;1.60;;;22.00;99.90;;;;;;5057980;28;20051;-46
2022/08/28 11:44:41;;;;;;;4.70;1.58;;;22.20;99.90;;;;;;5050984;28;20052;-47
2022/08/28 11:47:44;;;;;;;7.47;1.50;;;22.60;99.90;;;;;;5059521;28;20100;-46
2022/08/28 11:50:30;;;;;;;7.30;1.75;;;22.70;99.90;;;;;;5001905;28;20052;-45
2022/08/28 11:52:59;;;;;;;4.93;1.38;;;22.60;99.90;;;;;;5066594;28;21501;-46
2022/08/28 11:55:45;;;;;;;4.90;1.20;;;22.60;99.90;;;;;;5059864;28;20565;-48
2022/08/28 11:58:35;;;;;;;7.85;1.83;;;22.60;99.90;;;;;;5054433;28;20040;-46
2022/08/28 12:01:05;;;;;;;6.53;1.48;;;22.60;99.90;;;;;;5060749;28;20041;-47
2022/08/28 12:03:43;;;;;;;8.73;1.35;;;22.20;99.90;;;;;;5056909;28;20072;-47
2022/08/28 12:06:10;;;;;;;7.95;2.35;;;21.90;99.90;;;;;;5056308;28;20118;-47
2022/08/28 12:08:51;;;;;;;7.57;1.50;;;21.40;99.90;;;;;;5058547;28;20041;-45
2022/08/28 12:11:39;;;;;;;4.60;1.43;;;19.10;99.90;;;;;;5055343;28;20102;-46
2022/08/28 12:14:24;;;;;;;4.97;1.27;;;20.80;99.90;;;;;;5053309;28;20098;-47
2022/08/28 12:17:16;;;;;;;6.32;1.38;;;20.80;99.90;;;;;;5058004;28;20040;-45
2022/08/28 12:19:46;;;;;;;6.72;1.40;;;21.50;99.90;;;;;;5051081;28;20102;-45
2022/08/28 12:22:16;;;;;;;4.25;1.25;;;21.60;99.90;;;;;;5062407;28;20040;-45
2022/08/28 12:24:53;;;;;;;5.70;1.40;;;21.70;99.90;;;;;;5055118;28;20043;-47
2022/08/28 12:27:19;;;;;;;5.82;1.73;;;22.10;99.90;;;;;;5061830;28;20181;-46
2022/08/28 12:29:49;;;;;;;7.03;1.60;;;22.00;99.90;;;;;;5060990;28;20586;-48
2022/08/28 12:33:16;;;;;;;7.05;1.55;;;22.40;99.90;;;;;;5060981;28;20568;-45
2022/08/28 12:35:42;;;;;;;6.03;1.27;;;21.80;99.90;;;;;;4999416;28;20052;-47
2022/08/28 12:38:15;;;;;;;6.03;1.40;;;21.60;99.90;;;;;;5065178;28;20094;-44
2022/08/28 12:40:52;;;;;;;5.85;1.40;;;21.10;99.90;;;;;;5059095;28;20042;-46
2022/08/28 12:43:39;;;;;;;6.63;1.40;;;21.10;99.90;;;;;;5057544;28;20044;-44
2022/08/28 12:46:12;;;;;;;7.88;1.27;;;21.10;99.90;;;;;;5057940;28;20381;-48
2022/08/28 12:48:53;;;;;;;10.02;1.63;;;21.00;99.90;;;;;;5063077;28;20113;-46
2022/08/28 12:51:21;;;;;;;;;;;20.80;99.90;;;;;;5057983;28;20586;-47
2022/08/28 12:53:59;;;;;;;4.85;1.17;;;20.80;99.90;;;;;;5065649;28;20641;-46
2022/08/28 12:56:32;;;;;;;6.72;1.30;;;21.00;99.90;;;;;;5035786;28;20135;-46
2022/08/28 12:59:35;;;;;;;5.45;1.20;;;21.40;99.90;;;;;;5052713;28;20055;-47
2022/08/28 13:02:25;;;;;;;5.20;1.20;;;21.80;99.90;;;;;;5054012;28;20051;-47
2022/08/28 13:05:00;;;;;;;5.88;1.30;;;21.50;99.90;;;;;;5061225;28;20572;-46
2022/08/28 13:07:36;;;;;;;3.50;1.10;;;21.20;99.90;;;;;;5061311;28;20052;-44
2022/08/28 13:10:24;;;;;;;5.88;1.23;;;21.00;99.90;;;;;;5067140;28;20067;-46
2022/08/28 13:12:56;;;;;;;6.25;1.35;;;21.10;99.90;;;;;;5062974;28;20048;-44
2022/08/28 13:15:43;;;;;;;4.88;1.30;;;21.00;99.90;;;;;;5052743;28;20528;-44